Time;durP1;ratioP1;P1;durP2;ratioP2;P2;SDS_P1;SDS_P2;PMS_P1;PMS_P2;Temp;Humidity;BMP_temperature;BMP_pressure;BME280_temperature;BME280_humidity;BME280_pressure;Samples;Min_cycle;Max_cycle;Signal;HPM_P1;HPM_P2
2023/12/21 00:00:40;;;;;;;2.37;1.50;;;5.10;41.00;;;;;;4938767;28;46578;-81
2023/12/21 00:03:06;;;;;;;27.37;9.60;;;5.10;40.80;;;;;;4935917;28;47064;-80
2023/12/21 00:05:31;;;;;;;24.53;9.60;;;5.10;40.70;;;;;;4937524;28;47095;-80
2023/12/21 00:07:57;;;;;;;14.13;7.37;;;5.10;40.60;;;;;;4938750;28;46495;-79
2023/12/21 00:10:22;;;;;;;11.17;6.83;;;5.10;40.80;;;;;;4935118;28;46489;-79
2023/12/21 00:12:48;;;;;;;3.30;1.90;;;5.10;40.50;;;;;;4937858;28;46820;-79
2023/12/21 00:15:13;;;;;;;4.07;1.20;;;5.10;40.50;;;;;;4920449;28;48030;-80
2023/12/21 00:17:39;;;;;;;2.97;1.17;;;5.10;40.50;;;;;;4939276;28;46538;-79
2023/12/21 00:20:05;;;;;;;2.60;1.00;;;5.10;40.50;;;;;;4937984;28;46637;-79
2023/12/21 00:22:31;;;;;;;1.93;1.03;;;5.10;40.40;;;;;;4938579;28;46769;-80
2023/12/21 00:24:56;;;;;;;1.50;0.90;;;5.00;40.30;;;;;;4939507;28;46816;-79
2023/12/21 00:27:22;;;;;;;4.07;1.17;;;5.10;40.10;;;;;;4937512;28;46502;-80
2023/12/21 00:29:48;;;;;;;2.13;1.10;;;5.10;40.00;;;;;;4937045;28;46673;-79
2023/12/21 00:32:13;;;;;;;2.60;1.10;;;5.10;40.10;;;;;;4934826;28;46498;-78
2023/12/21 00:34:39;;;;;;;5.23;1.13;;;5.00;40.00;;;;;;4939175;28;46514;-79
2023/12/21 00:37:04;;;;;;;2.03;1.00;;;5.10;40.00;;;;;;4939466;28;46483;-80
2023/12/21 00:39:30;;;;;;;3.63;1.47;;;5.00;40.00;;;;;;4939377;28;46222;-80
2023/12/21 00:41:56;;;;;;;2.00;0.90;;;5.00;40.10;;;;;;4941637;28;47769;-80
2023/12/21 00:44:21;;;;;;;4.20;1.00;;;5.00;40.20;;;;;;4941480;28;46520;-79
2023/12/21 00:46:46;;;;;;;2.57;1.47;;;5.00;40.20;;;;;;4942616;28;46552;-79
2023/12/21 00:49:12;;;;;;;2.83;1.20;;;5.00;40.20;;;;;;4943718;28;46505;-80
2023/12/21 00:51:38;;;;;;;4.07;1.10;;;5.00;40.20;;;;;;4941673;28;46372;-80
2023/12/21 00:54:03;;;;;;;1.80;0.97;;;5.00;40.30;;;;;;4945746;28;46700;-80
2023/12/21 00:56:30;;;;;;;2.90;0.97;;;4.90;40.30;;;;;;4941292;28;46267;-79
2023/12/21 00:58:59;;;;;;;3.80;1.10;;;5.00;40.50;;;;;;4945083;28;46471;-79
2023/12/21 01:01:28;;;;;;;1.73;1.23;;;4.90;40.50;;;;;;4944328;28;46471;-80
2023/12/21 01:03:54;;;;;;;3.97;1.10;;;4.90;40.50;;;;;;4926601;28;47154;-81
2023/12/21 01:06:19;;;;;;;2.70;1.00;;;4.90;40.40;;;;;;4942916;28;46459;-81
2023/12/21 01:08:45;;;;;;;2.03;0.80;;;4.90;40.40;;;;;;4941658;28;46507;-81
2023/12/21 01:11:10;;;;;;;5.33;2.33;;;4.90;40.50;;;;;;4944302;28;46577;-81
2023/12/21 01:13:37;;;;;;;2.47;1.10;;;4.90;40.50;;;;;;4950159;28;46426;-80
2023/12/21 01:16:03;;;;;;;4.00;1.30;;;5.00;40.60;;;;;;4947537;28;46550;-80
2023/12/21 01:18:28;;;;;;;5.07;2.70;;;5.00;40.70;;;;;;4944458;28;46818;-82
2023/12/21 01:20:54;;;;;;;2.83;1.03;;;5.00;40.70;;;;;;4943962;28;46829;-81
2023/12/21 01:23:19;;;;;;;3.37;1.37;;;5.00;40.70;;;;;;4945729;28;46796;-80
2023/12/21 01:25:45;;;;;;;2.60;1.10;;;5.00;40.80;;;;;;4946435;28;46469;-79
2023/12/21 01:28:10;;;;;;;2.20;0.93;;;5.00;41.00;;;;;;4946008;28;46606;-79
2023/12/21 01:30:36;;;;;;;1.70;1.10;;;5.00;41.10;;;;;;4940218;28;47113;-79
2023/12/21 01:33:01;;;;;;;2.30;1.07;;;4.90;42.20;;;;;;4941872;28;46328;-79
2023/12/21 01:35:27;;;;;;;2.20;1.30;;;5.00;41.10;;;;;;4940317;28;46453;-80
2023/12/21 01:37:53;;;;;;;3.00;1.27;;;4.90;41.30;;;;;;4938573;28;46420;-80
2023/12/21 01:40:18;;;;;;;2.50;1.37;;;4.90;41.60;;;;;;4938602;28;48232;-80
2023/12/21 01:42:44;;;;;;;1.80;1.20;;;4.90;41.60;;;;;;4940647;28;46400;-79
2023/12/21 01:45:09;;;;;;;2.93;1.27;;;4.90;41.90;;;;;;4940010;28;46466;-77
2023/12/21 01:47:35;;;;;;;5.10;1.50;;;4.80;42.20;;;;;;4941130;28;46887;-80
2023/12/21 01:50:01;;;;;;;1.90;1.00;;;4.70;42.50;;;;;;4939047;28;47501;-79
2023/12/21 01:52:28;;;;;;;2.30;1.10;;;4.70;42.70;;;;;;4923551;28;45833;-80
2023/12/21 01:54:54;;;;;;;2.80;1.10;;;4.60;43.00;;;;;;4936195;28;46663;-79
2023/12/21 01:57:20;;;;;;;2.60;1.20;;;4.70;43.20;;;;;;4939624;28;46470;-81
2023/12/21 01:59:46;;;;;;;3.60;1.10;;;4.70;43.30;;;;;;4941700;28;47056;-80
2023/12/21 02:02:12;;;;;;;1.63;1.07;;;4.70;43.40;;;;;;4941274;28;45763;-80
2023/12/21 02:04:37;;;;;;;1.60;0.93;;;4.60;43.60;;;;;;4926426;28;46958;-79
2023/12/21 02:07:03;;;;;;;1.77;1.10;;;4.60;43.80;;;;;;4942005;28;46710;-80
2023/12/21 02:09:29;;;;;;;1.97;1.37;;;4.60;43.80;;;;;;4939596;28;47363;-79
2023/12/21 02:11:54;;;;;;;2.43;1.20;;;4.70;44.00;;;;;;4923916;28;46693;-80
2023/12/21 02:14:20;;;;;;;1.57;1.03;;;4.70;43.90;;;;;;4940395;28;46538;-80
2023/12/21 02:16:57;;;;;;;3.20;1.30;;;4.70;43.90;;;;;;4940706;28;46629;-80
2023/12/21 02:19:23;;;;;;;1.70;1.10;;;4.70;44.00;;;;;;4939246;28;48407;-80
2023/12/21 02:21:51;;;;;;;2.70;1.00;;;4.70;44.10;;;;;;4939968;28;46879;-80
2023/12/21 02:24:17;;;;;;;1.30;0.93;;;4.80;44.20;;;;;;4940678;28;46455;-79
2023/12/21 02:26:43;;;;;;;1.33;0.90;;;4.70;44.30;;;;;;4941747;28;46499;-80
2023/12/21 02:29:09;;;;;;;1.40;0.90;;;4.80;44.40;;;;;;4941298;28;47959;-80
2023/12/21 02:31:36;;;;;;;1.60;1.07;;;4.80;44.40;;;;;;4939991;28;46483;-80
2023/12/21 02:34:02;;;;;;;1.30;1.00;;;4.80;44.60;;;;;;4942366;28;46667;-80
2023/12/21 02:36:28;;;;;;;2.23;1.23;;;4.80;44.70;;;;;;4939957;28;46519;-81
2023/12/21 02:38:54;;;;;;;1.40;1.00;;;4.80;44.50;;;;;;4941002;28;47109;-80
2023/12/21 02:41:19;;;;;;;2.70;1.30;;;4.80;44.70;;;;;;4938446;28;47224;-80
2023/12/21 02:43:46;;;;;;;1.60;1.00;;;4.80;44.80;;;;;;4943295;28;46463;-79
2023/12/21 02:46:12;;;;;;;1.73;1.20;;;4.80;45.00;;;;;;4941434;28;46451;-79
2023/12/21 02:48:37;;;;;;;1.83;1.10;;;4.80;45.20;;;;;;4941504;28;46311;-79
2023/12/21 02:51:03;;;;;;;3.50;1.20;;;4.70;45.40;;;;;;4940953;28;46853;-79
2023/12/21 02:53:28;;;;;;;3.13;1.50;;;4.80;45.80;;;;;;4943733;28;46471;-81
2023/12/21 02:55:54;;;;;;;2.60;1.57;;;4.70;45.90;;;;;;4940305;28;45893;-81
2023/12/21 02:58:19;;;;;;;1.40;1.00;;;4.60;46.30;;;;;;4942074;28;46577;-80
2023/12/21 03:00:45;;;;;;;2.10;1.30;;;4.60;46.60;;;;;;4925678;28;46535;-80
2023/12/21 03:03:10;;;;;;;2.30;1.50;;;4.50;47.10;;;;;;4943377;28;46427;-79
2023/12/21 03:05:36;;;;;;;1.97;1.20;;;4.50;47.20;;;;;;4942553;28;46876;-81
2023/12/21 03:08:02;;;;;;;1.70;1.33;;;4.50;47.20;;;;;;4942884;28;47173;-81
2023/12/21 03:10:28;;;;;;;1.63;1.00;;;4.50;47.40;;;;;;4943180;28;46467;-81
2023/12/21 03:12:53;;;;;;;1.80;1.30;;;4.60;47.50;;;;;;4943899;28;46479;-80
2023/12/21 03:15:19;;;;;;;2.63;1.27;;;4.60;47.30;;;;;;4943822;28;46606;-81
2023/12/21 03:17:44;;;;;;;1.63;1.30;;;4.60;47.50;;;;;;4943162;28;46485;-82
2023/12/21 03:20:10;;;;;;;1.70;1.33;;;4.60;47.70;;;;;;4946400;28;46375;-81
2023/12/21 03:22:36;;;;;;;4.07;1.60;;;4.60;47.80;;;;;;4940180;28;46419;-81
2023/12/21 03:25:02;;;;;;;3.27;1.30;;;4.70;47.80;;;;;;4938962;28;46872;-81
2023/12/21 03:27:27;;;;;;;2.90;1.43;;;4.70;48.10;;;;;;4939754;28;47285;-80
2023/12/21 03:29:53;;;;;;;3.23;1.23;;;4.70;47.80;;;;;;4939563;28;46470;-80
2023/12/21 03:32:18;;;;;;;4.00;1.40;;;4.80;47.80;;;;;;4921909;28;46403;-80
2023/12/21 03:34:44;;;;;;;2.50;1.40;;;4.80;47.70;;;;;;4939691;28;46609;-80
2023/12/21 03:37:09;;;;;;;1.30;0.90;;;4.80;47.70;;;;;;4940199;28;46526;-80
2023/12/21 03:39:35;;;;;;;3.10;1.20;;;4.80;48.10;;;;;;4939123;28;47135;-79
2023/12/21 03:42:02;;;;;;;2.43;1.30;;;4.80;48.10;;;;;;4938596;28;46536;-81
2023/12/21 03:44:28;;;;;;;3.03;1.40;;;4.80;48.10;;;;;;4938447;28;46533;-79
2023/12/21 03:46:53;;;;;;;2.17;1.23;;;4.90;48.20;;;;;;4940178;28;47294;-80
2023/12/21 03:49:19;;;;;;;2.27;1.20;;;4.90;48.30;;;;;;4937772;28;46424;-78
2023/12/21 03:51:44;;;;;;;2.83;1.70;;;4.90;48.30;;;;;;4939721;28;46880;-80
2023/12/21 03:54:10;;;;;;;1.87;1.10;;;4.90;47.90;;;;;;4939153;28;46739;-79
2023/12/21 03:56:39;;;;;;;2.23;1.43;;;4.90;48.10;;;;;;4937611;28;46812;-80
2023/12/21 03:59:05;;;;;;;2.37;0.90;;;4.90;48.30;;;;;;4939846;28;46435;-80
2023/12/21 04:01:30;;;;;;;4.57;1.67;;;4.90;48.30;;;;;;4936221;28;46510;-81
2023/12/21 04:03:56;;;;;;;1.30;1.00;;;5.00;48.30;;;;;;4940231;28;46482;-79
2023/12/21 04:06:22;;;;;;;1.57;1.20;;;5.00;48.30;;;;;;4938046;28;46800;-79
2023/12/21 04:08:47;;;;;;;1.50;1.00;;;5.00;48.20;;;;;;4939403;28;46748;-80
2023/12/21 04:11:13;;;;;;;1.50;1.10;;;5.00;48.70;;;;;;4938643;28;46816;-80
2023/12/21 04:13:39;;;;;;;2.17;1.00;;;5.00;48.30;;;;;;4938494;28;46495;-80
2023/12/21 04:16:08;;;;;;;1.50;0.97;;;5.10;48.00;;;;;;4940587;28;46411;-79
2023/12/21 04:18:34;;;;;;;1.77;1.10;;;5.10;48.10;;;;;;4938402;28;46854;-79
2023/12/21 04:20:59;;;;;;;1.57;0.90;;;5.10;48.00;;;;;;4937494;28;46524;-80
2023/12/21 04:23:25;;;;;;;2.17;1.00;;;5.10;48.00;;;;;;4937932;28;46723;-80
2023/12/21 04:25:50;;;;;;;1.43;1.17;;;5.10;47.90;;;;;;4939642;28;46587;-81
2023/12/21 04:28:16;;;;;;;3.20;1.00;;;5.10;47.90;;;;;;4939516;28;46552;-80
2023/12/21 04:30:41;;;;;;;2.07;1.23;;;5.20;47.80;;;;;;4922051;28;46714;-80
2023/12/21 04:33:11;;;;;;;2.50;1.10;;;5.20;47.80;;;;;;4940178;28;46379;-80
2023/12/21 04:35:37;;;;;;;1.60;1.00;;;5.20;47.70;;;;;;4938619;28;46903;-80
2023/12/21 04:38:03;;;;;;;1.63;0.90;;;5.20;47.60;;;;;;4939260;28;46408;-80
2023/12/21 04:40:28;;;;;;;1.60;0.97;;;5.20;47.60;;;;;;4939795;28;46432;-80
2023/12/21 04:42:55;;;;;;;2.40;1.00;;;5.30;47.70;;;;;;4938240;28;46450;-80
2023/12/21 04:45:23;;;;;;;2.47;1.20;;;5.30;47.80;;;;;;4935477;28;46276;-80
2023/12/21 04:47:50;;;;;;;1.50;0.87;;;5.30;47.70;;;;;;4937311;28;46707;-79
2023/12/21 04:50:15;;;;;;;2.53;0.80;;;5.30;47.60;;;;;;4937326;28;46338;-80
2023/12/21 04:52:41;;;;;;;1.23;0.90;;;5.30;47.50;;;;;;4936508;28;46486;-79
2023/12/21 04:55:08;;;;;;;1.37;0.90;;;5.40;47.60;;;;;;4937870;28;46712;-80
2023/12/21 04:57:34;;;;;;;1.90;1.00;;;5.40;47.50;;;;;;4919255;28;46239;-80
2023/12/21 05:00:00;;;;;;;1.23;0.87;;;5.40;47.30;;;;;;4938013;28;46545;-80
2023/12/21 05:02:25;;;;;;;1.40;1.20;;;5.40;47.40;;;;;;4936912;28;46718;-79
2023/12/21 05:04:51;;;;;;;1.43;0.93;;;5.40;47.40;;;;;;4937361;28;46688;-80
2023/12/21 05:07:18;;;;;;;1.80;0.90;;;5.40;47.30;;;;;;4936155;28;46535;-80
2023/12/21 05:09:43;;;;;;;1.30;0.90;;;5.40;47.40;;;;;;4935588;28;46856;-80
2023/12/21 05:12:09;;;;;;;3.27;1.63;;;5.40;47.30;;;;;;4937766;28;46745;-80
2023/12/21 05:14:34;;;;;;;1.37;0.80;;;5.50;47.40;;;;;;4920399;28;47322;-80
2023/12/21 05:17:00;;;;;;;1.20;0.80;;;5.50;47.40;;;;;;4936171;28;46014;-80
2023/12/21 05:19:26;;;;;;;2.23;0.90;;;5.50;47.40;;;;;;4940110;28;46743;-79
2023/12/21 05:21:51;;;;;;;1.00;0.70;;;5.50;47.40;;;;;;4942091;28;46838;-80
2023/12/21 05:24:17;;;;;;;1.47;0.93;;;5.50;47.30;;;;;;4938959;28;49081;-80
2023/12/21 05:26:43;;;;;;;2.87;1.10;;;5.50;47.30;;;;;;4939933;28;46673;-77
2023/12/21 05:29:08;;;;;;;1.83;1.00;;;5.50;47.20;;;;;;4942663;28;46000;-78
2023/12/21 05:31:37;;;;;;;1.60;0.90;;;5.60;47.30;;;;;;4938923;28;45900;-80
2023/12/21 05:34:03;;;;;;;1.50;0.90;;;5.60;47.40;;;;;;4938791;28;47208;-80
2023/12/21 05:36:29;;;;;;;1.73;1.27;;;5.60;47.20;;;;;;4938240;28;47379;-77
2023/12/21 05:38:54;;;;;;;1.50;1.00;;;5.60;47.20;;;;;;4939347;28;46479;-79
2023/12/21 05:41:20;;;;;;;1.60;0.93;;;5.60;47.10;;;;;;4940183;28;46455;-79
2023/12/21 05:43:45;;;;;;;1.60;0.93;;;5.60;47.00;;;;;;4939596;28;50751;-81
2023/12/21 05:46:11;;;;;;;3.23;1.07;;;5.70;46.90;;;;;;4938672;28;46492;-80
2023/12/21 05:48:37;;;;;;;1.80;0.90;;;5.60;46.90;;;;;;4938698;28;46888;-80
2023/12/21 05:51:03;;;;;;;1.40;0.93;;;5.60;47.00;;;;;;4939429;28;47221;-80
2023/12/21 05:53:32;;;;;;;1.40;0.90;;;5.60;46.80;;;;;;4939358;28;48239;-80
2023/12/21 05:55:58;;;;;;;1.57;0.80;;;5.70;46.90;;;;;;4923291;28;46578;-78
2023/12/21 05:58:24;;;;;;;2.37;1.13;;;5.70;46.80;;;;;;4938485;28;46745;-80
2023/12/21 06:00:50;;;;;;;3.30;0.97;;;5.70;46.60;;;;;;4922219;28;46753;-80
2023/12/21 06:03:15;;;;;;;1.53;1.10;;;5.70;46.60;;;;;;4922319;28;49086;-80
2023/12/21 06:05:41;;;;;;;1.40;0.90;;;5.70;46.50;;;;;;4937843;28;46430;-78
2023/12/21 06:08:06;;;;;;;1.30;0.80;;;5.80;46.50;;;;;;4940096;28;46383;-81
2023/12/21 06:10:33;;;;;;;1.40;0.97;;;5.80;46.40;;;;;;4945938;28;46577;-82
2023/12/21 06:12:59;;;;;;;1.50;0.90;;;5.80;46.40;;;;;;4947685;28;48368;-82
2023/12/21 06:15:25;;;;;;;1.50;1.10;;;5.80;46.30;;;;;;4949050;28;46466;-81
2023/12/21 06:17:50;;;;;;;1.40;0.90;;;5.80;46.10;;;;;;4945149;28;46482;-79
2023/12/21 06:20:16;;;;;;;1.10;0.80;;;5.80;46.20;;;;;;4937936;28;46249;-80
2023/12/21 06:22:41;;;;;;;2.03;0.97;;;5.80;46.20;;;;;;4936475;28;49528;-80
2023/12/21 06:25:07;;;;;;;1.90;1.13;;;5.80;46.10;;;;;;4939526;28;46590;-80
2023/12/21 06:27:33;;;;;;;1.67;1.10;;;5.90;46.10;;;;;;4921221;28;46659;-79
2023/12/21 06:29:58;;;;;;;1.80;1.00;;;5.90;46.00;;;;;;4938943;28;46731;-80
2023/12/21 06:32:24;;;;;;;1.73;1.03;;;5.90;45.90;;;;;;4939540;28;46854;-78
2023/12/21 06:34:50;;;;;;;3.20;1.73;;;5.90;45.70;;;;;;4938306;28;46571;-81
2023/12/21 06:37:15;;;;;;;2.23;1.30;;;5.90;45.60;;;;;;4939056;28;46558;-80
2023/12/21 06:39:41;;;;;;;1.57;0.90;;;5.90;45.50;;;;;;4938570;28;45959;-82
2023/12/21 06:42:07;;;;;;;1.70;1.10;;;6.00;45.50;;;;;;4940975;28;46801;-80
2023/12/21 06:44:33;;;;;;;1.20;0.80;;;6.00;45.30;;;;;;4938212;28;46134;-80
2023/12/21 06:46:58;;;;;;;1.87;1.10;;;6.00;45.20;;;;;;4942001;28;46371;-80
2023/12/21 06:49:24;;;;;;;1.10;0.70;;;6.10;45.20;;;;;;4939596;28;46882;-81
2023/12/21 06:51:49;;;;;;;1.83;0.93;;;6.10;45.20;;;;;;4939593;28;48367;-82
2023/12/21 06:54:15;;;;;;;1.30;0.90;;;6.00;45.00;;;;;;4940279;28;46471;-81
2023/12/21 06:56:40;;;;;;;1.60;0.90;;;6.10;45.00;;;;;;4922394;28;46349;-80
2023/12/21 06:59:06;;;;;;;1.53;0.90;;;6.10;45.00;;;;;;4936982;28;46811;-78
2023/12/21 07:01:32;;;;;;;3.00;1.00;;;6.10;45.30;;;;;;4939629;28;46582;-79
2023/12/21 07:03:58;;;;;;;1.60;0.87;;;6.10;44.90;;;;;;4939810;28;46367;-80
2023/12/21 07:06:27;;;;;;;1.50;0.90;;;6.10;44.80;;;;;;4923028;28;46691;-79
2023/12/21 07:08:53;;;;;;;2.57;1.00;;;6.20;44.80;;;;;;4939099;28;46631;-79
2023/12/21 07:11:18;;;;;;;1.57;1.03;;;6.20;44.60;;;;;;4939186;28;46460;-81
2023/12/21 07:13:44;;;;;;;1.90;0.90;;;6.20;44.60;;;;;;4939404;28;46495;-81
2023/12/21 07:16:11;;;;;;;1.77;1.00;;;6.20;44.40;;;;;;4941414;28;46411;-81
2023/12/21 07:18:37;;;;;;;2.23;1.17;;;6.20;44.40;;;;;;4938273;28;46507;-82
2023/12/21 07:21:04;;;;;;;1.67;0.90;;;6.20;44.30;;;;;;4940449;28;47392;-81
2023/12/21 07:23:29;;;;;;;2.17;1.13;;;6.30;44.30;;;;;;4940070;28;46741;-81
2023/12/21 07:25:55;;;;;;;4.13;0.90;;;6.30;44.10;;;;;;4941233;28;46729;-80
2023/12/21 07:28:21;;;;;;;1.33;0.90;;;6.30;44.00;;;;;;4930043;28;46569;-80
2023/12/21 07:30:46;;;;;;;1.50;0.80;;;6.40;43.90;;;;;;4938191;28;46385;-80
2023/12/21 07:33:12;;;;;;;1.27;0.80;;;6.40;43.90;;;;;;4937550;28;46416;-79
2023/12/21 07:35:38;;;;;;;1.20;0.70;;;6.50;43.80;;;;;;4936620;28;46852;-79
2023/12/21 07:38:05;;;;;;;6.73;1.53;;;6.40;43.70;;;;;;4936116;28;46613;-80
2023/12/21 07:40:30;;;;;;;1.97;0.90;;;6.50;43.70;;;;;;4938610;28;47317;-81
2023/12/21 07:42:56;;;;;;;2.30;1.10;;;6.50;43.70;;;;;;4938426;28;47495;-81
2023/12/21 07:45:21;;;;;;;1.33;0.90;;;6.50;43.30;;;;;;4940484;28;46582;-81
2023/12/21 07:47:48;;;;;;;2.53;0.70;;;6.60;43.30;;;;;;4935203;28;46687;-80
2023/12/21 07:50:13;;;;;;;1.20;0.70;;;6.60;43.30;;;;;;4940245;28;47114;-82
2023/12/21 07:52:39;;;;;;;1.83;0.90;;;6.70;43.10;;;;;;4938356;28;46566;-83
2023/12/21 07:55:06;;;;;;;2.23;1.03;;;6.80;43.00;;;;;;4936700;28;47654;-79
2023/12/21 07:57:32;;;;;;;1.43;0.80;;;6.70;42.70;;;;;;4935467;28;46403;-80
2023/12/21 07:59:57;;;;;;;1.13;0.80;;;6.80;42.80;;;;;;4934870;28;46719;-80
2023/12/21 08:02:23;;;;;;;3.00;0.80;;;6.80;42.70;;;;;;4937535;28;46552;-81
2023/12/21 08:04:49;;;;;;;1.10;0.70;;;6.90;42.60;;;;;;4934986;28;46407;-79
2023/12/21 08:07:15;;;;;;;1.33;0.90;;;6.90;42.50;;;;;;4933894;28;45910;-81
2023/12/21 08:09:41;;;;;;;1.33;0.80;;;6.90;42.40;;;;;;4932847;28;47613;-81
2023/12/21 08:12:08;;;;;;;1.50;0.70;;;6.90;42.30;;;;;;4935660;28;46462;-79
2023/12/21 08:14:35;;;;;;;1.47;0.87;;;6.90;42.20;;;;;;4933495;28;46546;-79
2023/12/21 08:17:03;;;;;;;2.17;1.00;;;6.90;42.20;;;;;;4932390;28;46624;-79
2023/12/21 08:19:28;;;;;;;1.70;0.80;;;7.00;42.20;;;;;;4931625;28;46694;-79
2023/12/21 08:21:54;;;;;;;1.50;0.80;;;7.00;42.10;;;;;;4932812;28;46713;-78
2023/12/21 08:24:19;;;;;;;1.30;0.90;;;7.10;42.00;;;;;;4932960;28;46546;-79
2023/12/21 08:26:45;;;;;;;2.20;0.87;;;7.10;41.70;;;;;;4915793;28;46662;-78
2023/12/21 08:29:10;;;;;;;1.30;0.80;;;7.20;41.70;;;;;;4934949;28;46528;-78
2023/12/21 08:31:36;;;;;;;2.20;1.07;;;7.20;41.20;;;;;;4915926;28;46547;-79
2023/12/21 08:34:02;;;;;;;1.60;0.87;;;7.20;41.50;;;;;;4915780;28;47278;-78
2023/12/21 08:36:27;;;;;;;2.40;0.90;;;7.20;41.40;;;;;;4932326;28;46618;-79
2023/12/21 08:38:53;;;;;;;1.40;0.90;;;7.20;41.30;;;;;;4931306;28;47504;-78
2023/12/21 08:41:20;;;;;;;1.60;0.77;;;7.20;41.30;;;;;;4937658;28;46559;-76
2023/12/21 08:43:46;;;;;;;1.40;0.80;;;7.20;41.10;;;;;;4932756;28;46494;-77
2023/12/21 08:46:11;;;;;;;5.23;2.20;;;7.20;41.00;;;;;;4931491;28;47443;-79
2023/12/21 08:48:37;;;;;;;2.00;1.13;;;7.30;41.00;;;;;;4932607;28;46891;-79
2023/12/21 08:51:03;;;;;;;3.33;0.83;;;7.30;41.00;;;;;;4930739;28;46454;-82
2023/12/21 08:53:28;;;;;;;1.30;0.77;;;7.30;40.80;;;;;;4934276;28;46389;-82
2023/12/21 08:55:54;;;;;;;1.30;0.60;;;7.40;40.60;;;;;;4933276;28;46701;-79
2023/12/21 08:58:19;;;;;;;1.87;1.10;;;7.40;40.30;;;;;;4934817;28;47313;-77
2023/12/21 09:00:46;;;;;;;1.30;0.80;;;7.50;40.10;;;;;;4934684;28;46423;-80
2023/12/21 09:03:11;;;;;;;1.37;0.80;;;7.50;39.90;;;;;;4936013;28;46823;-79
2023/12/21 09:05:37;;;;;;;1.20;0.80;;;7.50;39.70;;;;;;4933538;28;46540;-79
2023/12/21 09:08:03;;;;;;;1.40;0.80;;;7.50;39.50;;;;;;4917212;28;47950;-79
2023/12/21 09:10:29;;;;;;;1.30;0.73;;;7.60;39.70;;;;;;4933007;28;46503;-79
2023/12/21 09:12:54;;;;;;;2.13;0.90;;;7.60;39.50;;;;;;4936681;28;47073;-80
2023/12/21 09:15:20;;;;;;;1.77;0.80;;;7.60;39.40;;;;;;4936712;28;47885;-79
2023/12/21 09:17:46;;;;;;;1.70;0.87;;;7.70;39.50;;;;;;4936093;28;47275;-79
2023/12/21 09:20:13;;;;;;;1.40;0.70;;;7.70;39.30;;;;;;4936615;28;46766;-80
2023/12/21 09:22:39;;;;;;;1.40;0.80;;;7.70;39.20;;;;;;4936426;28;46554;-80
2023/12/21 09:25:05;;;;;;;3.63;0.90;;;7.70;39.10;;;;;;4936718;28;45917;-80
2023/12/21 09:27:32;;;;;;;1.40;0.80;;;7.70;39.00;;;;;;4920240;28;49218;-79
2023/12/21 09:29:58;;;;;;;1.50;0.80;;;7.70;38.80;;;;;;4934731;28;46462;-77
2023/12/21 09:32:23;;;;;;;3.93;0.80;;;7.70;38.70;;;;;;4938183;28;46854;-78
2023/12/21 09:34:49;;;;;;;2.90;0.70;;;7.70;38.60;;;;;;4917987;28;46674;-78
2023/12/21 09:37:14;;;;;;;1.60;0.90;;;7.80;38.40;;;;;;4934536;28;46559;-79
2023/12/21 09:39:40;;;;;;;1.40;0.80;;;7.80;38.30;;;;;;4935071;28;46981;-80
2023/12/21 09:42:06;;;;;;;1.90;0.80;;;7.90;38.00;;;;;;4935437;28;46575;-79
2023/12/21 09:44:34;;;;;;;4.30;1.50;;;7.90;37.60;;;;;;4935384;28;46433;-79
2023/12/21 09:47:04;;;;;;;1.97;1.10;;;7.90;37.70;;;;;;4932074;28;46579;-79
2023/12/21 09:49:36;;;;;;;1.30;0.70;;;7.90;37.60;;;;;;4934586;28;46776;-79
2023/12/21 09:52:07;;;;;;;1.83;0.80;;;8.00;37.70;;;;;;4936138;28;46752;-79
2023/12/21 09:54:35;;;;;;;1.90;0.90;;;8.00;37.70;;;;;;4939251;28;46592;-80
2023/12/21 09:57:02;;;;;;;3.03;0.90;;;8.00;37.70;;;;;;4920096;28;50178;-79
2023/12/21 09:59:31;;;;;;;2.97;0.87;;;8.00;37.80;;;;;;4935514;28;47035;-81
2023/12/21 10:01:57;;;;;;;1.67;0.80;;;8.00;37.70;;;;;;4933924;28;45815;-80
2023/12/21 10:04:22;;;;;;;1.87;0.90;;;8.00;37.70;;;;;;4936230;28;46487;-80
2023/12/21 10:06:48;;;;;;;1.20;0.80;;;8.00;37.80;;;;;;4934189;28;47055;-81
2023/12/21 10:09:15;;;;;;;1.60;0.90;;;8.10;37.80;;;;;;4934303;28;46957;-80
2023/12/21 10:11:41;;;;;;;1.53;0.70;;;8.10;37.80;;;;;;4932985;28;46832;-80
2023/12/21 10:14:19;;;;;;;2.03;0.77;;;8.10;37.70;;;;;;4934602;28;47262;-79
2023/12/21 10:16:45;;;;;;;1.30;0.70;;;8.10;37.70;;;;;;4936569;28;46887;-81
2023/12/21 10:19:12;;;;;;;5.53;0.80;;;8.20;37.90;;;;;;4921569;28;47111;-77
2023/12/21 10:21:40;;;;;;;1.53;0.90;;;8.20;37.80;;;;;;4932877;28;46646;-80
2023/12/21 10:24:06;;;;;;;1.40;0.67;;;8.30;37.90;;;;;;4930458;28;46716;-78
2023/12/21 10:26:32;;;;;;;1.93;0.83;;;8.30;37.70;;;;;;4930974;28;46607;-80
2023/12/21 10:28:58;;;;;;;1.70;0.80;;;8.30;37.40;;;;;;4921508;28;46586;-79
2023/12/21 10:31:25;;;;;;;1.20;0.70;;;8.40;37.20;;;;;;4933401;28;47174;-77
2023/12/21 10:33:52;;;;;;;1.30;0.70;;;8.40;36.90;;;;;;4936601;28;46692;-77
2023/12/21 10:36:18;;;;;;;1.30;0.70;;;8.40;36.70;;;;;;4935845;28;48302;-78
2023/12/21 10:38:44;;;;;;;1.27;0.60;;;8.50;36.70;;;;;;4922276;28;46788;-78
2023/12/21 10:41:10;;;;;;;1.93;0.93;;;8.50;36.70;;;;;;4932241;28;46454;-78
2023/12/21 10:43:36;;;;;;;3.20;0.80;;;8.50;36.60;;;;;;4933118;28;46967;-79
2023/12/21 10:46:03;;;;;;;2.33;0.87;;;8.40;36.40;;;;;;4919625;28;48969;-78
2023/12/21 10:48:33;;;;;;;1.40;0.80;;;8.40;36.50;;;;;;4929884;28;46760;-78
2023/12/21 10:51:00;;;;;;;2.17;0.87;;;8.50;36.40;;;;;;4931453;28;46671;-79
2023/12/21 10:53:29;;;;;;;5.60;1.00;;;8.50;36.30;;;;;;4931953;28;46490;-78
2023/12/21 10:55:56;;;;;;;1.20;0.60;;;8.50;36.30;;;;;;4931148;28;46545;-80
2023/12/21 10:58:23;;;;;;;1.20;0.60;;;8.50;36.10;;;;;;4922758;28;46896;-78
2023/12/21 11:00:50;;;;;;;1.20;0.67;;;8.50;36.10;;;;;;4929474;28;46778;-80
2023/12/21 11:03:17;;;;;;;1.40;0.70;;;8.50;35.90;;;;;;4933886;28;46533;-79
2023/12/21 11:05:46;;;;;;;1.90;0.70;;;8.60;35.80;;;;;;4929431;28;46620;-78
2023/12/21 11:08:12;;;;;;;3.67;0.70;;;8.60;35.70;;;;;;4921494;28;46694;-77
2023/12/21 11:10:38;;;;;;;2.47;0.83;;;8.60;35.70;;;;;;4932206;28;46939;-78
2023/12/21 11:13:04;;;;;;;1.30;0.67;;;8.60;35.50;;;;;;4932493;28;46374;-77
2023/12/21 11:15:30;;;;;;;1.60;0.70;;;8.60;35.50;;;;;;4930758;28;47000;-79
2023/12/21 11:18:01;;;;;;;1.20;0.70;;;8.60;35.50;;;;;;4934625;28;47039;-79
2023/12/21 11:20:32;;;;;;;1.50;0.80;;;8.50;35.10;;;;;;4956233;28;46027;-78
2023/12/21 11:23:06;;;;;;;1.80;0.73;;;8.50;35.40;;;;;;4941687;28;46399;-77
2023/12/21 11:25:33;;;;;;;2.80;1.03;;;8.50;35.40;;;;;;4932002;28;46455;-78
2023/12/21 11:28:02;;;;;;;5.27;2.47;;;8.50;35.50;;;;;;4930652;28;46636;-78
2023/12/21 11:30:28;;;;;;;2.00;1.10;;;8.40;35.50;;;;;;4921090;28;46444;-77
2023/12/21 11:33:04;;;;;;;4.53;1.00;;;8.40;35.50;;;;;;4931955;28;46665;-79
2023/12/21 11:35:31;;;;;;;1.80;0.90;;;8.40;35.50;;;;;;4930975;28;46663;-77
2023/12/21 11:37:59;;;;;;;1.90;0.80;;;8.40;35.50;;;;;;4927865;28;47553;-79
2023/12/21 11:40:26;;;;;;;2.30;1.00;;;8.40;35.50;;;;;;4936318;28;46497;-79
2023/12/21 11:42:56;;;;;;;1.67;0.80;;;8.40;35.40;;;;;;4934347;28;46447;-79
2023/12/21 11:45:23;;;;;;;2.50;0.90;;;8.50;35.40;;;;;;4935637;28;49329;-80
2023/12/21 11:47:49;;;;;;;3.47;1.00;;;8.50;35.30;;;;;;4922258;28;46914;-79
2023/12/21 11:50:18;;;;;;;1.40;0.90;;;8.50;35.30;;;;;;4931550;28;45995;-79
2023/12/21 11:52:44;;;;;;;1.60;0.90;;;8.50;35.20;;;;;;4931518;28;46950;-79
2023/12/21 11:55:10;;;;;;;1.40;0.73;;;8.50;35.40;;;;;;4931781;28;46925;-78
2023/12/21 11:57:40;;;;;;;2.93;1.30;;;8.50;35.40;;;;;;4933125;28;46624;-79
2023/12/21 12:00:07;;;;;;;8.23;3.33;;;8.50;36.40;;;;;;4934541;28;46916;-79
2023/12/21 12:02:34;;;;;;;2.03;1.30;;;8.50;35.30;;;;;;4934187;28;46457;-79
2023/12/21 12:05:02;;;;;;;1.50;0.70;;;8.50;35.30;;;;;;4931274;28;47285;-77
2023/12/21 12:07:30;;;;;;;1.27;0.63;;;8.60;35.40;;;;;;4932226;28;46591;-79
2023/12/21 12:09:55;;;;;;;1.40;0.80;;;8.60;35.10;;;;;;4936030;28;46497;-77
2023/12/21 12:12:21;;;;;;;1.73;0.77;;;8.70;35.10;;;;;;4933234;28;47053;-78
2023/12/21 12:14:47;;;;;;;1.50;0.70;;;8.70;35.00;;;;;;4937083;28;48251;-78
2023/12/21 12:17:13;;;;;;;1.50;0.70;;;8.70;35.00;;;;;;4928054;28;46502;-80
2023/12/21 12:19:38;;;;;;;1.40;0.70;;;8.70;35.00;;;;;;4933828;28;46355;-80
2023/12/21 12:22:04;;;;;;;1.47;0.80;;;8.70;35.00;;;;;;4920947;28;46456;-82
2023/12/21 12:24:30;;;;;;;2.27;0.60;;;8.70;35.00;;;;;;4932344;28;46646;-80
2023/12/21 12:26:56;;;;;;;4.63;1.97;;;8.70;35.00;;;;;;4929561;28;46557;-81
2023/12/21 12:29:21;;;;;;;2.17;1.07;;;8.80;35.10;;;;;;4938402;28;46561;-82
2023/12/21 12:31:50;;;;;;;2.53;0.90;;;8.80;35.10;;;;;;4935845;28;47063;-79
2023/12/21 12:34:17;;;;;;;2.73;0.83;;;8.80;35.00;;;;;;4934701;28;47176;-80
2023/12/21 12:36:42;;;;;;;1.10;0.60;;;8.90;35.00;;;;;;4922380;28;46538;-78
2023/12/21 12:39:10;;;;;;;1.60;0.80;;;8.90;34.90;;;;;;4936562;28;46439;-80
2023/12/21 12:41:36;;;;;;;1.47;0.70;;;8.90;35.00;;;;;;4935915;28;46850;-82
2023/12/21 12:44:02;;;;;;;1.40;0.63;;;8.90;35.00;;;;;;4925476;28;50249;-84
2023/12/21 12:46:28;;;;;;;1.20;0.70;;;9.00;34.90;;;;;;4939037;28;47001;-78
2023/12/21 12:48:54;;;;;;;1.53;0.73;;;9.00;34.90;;;;;;4935802;28;46784;-81
2023/12/21 12:51:22;;;;;;;1.97;1.00;;;9.00;34.90;;;;;;4936813;28;46806;-80